sensor_id;sensor_type;location;lat;lon;timestamp;P1;durP1;ratioP1;P2;durP2;ratioP2
19235;SDS011;9752;54.270;12.470;2022-10-13T00:02:36;25.20;;;12.63;;
19235;SDS011;9752;54.270;12.470;2022-10-13T00:07:39;27.10;;;12.87;;
19235;SDS011;9752;54.270;12.470;2022-10-13T00:12:40;25.10;;;12.97;;
19235;SDS011;9752;54.270;12.470;2022-10-13T00:17:44;27.13;;;13.60;;
19235;SDS011;9752;54.270;12.470;2022-10-13T00:22:47;22.03;;;12.07;;
19235;SDS011;9752;54.270;12.470;2022-10-13T00:27:49;19.17;;;11.87;;
19235;SDS011;9752;54.270;12.470;2022-10-13T00:32:53;20.17;;;11.73;;
19235;SDS011;9752;54.270;12.470;2022-10-13T00:37:56;24.40;;;13.07;;
19235;SDS011;9752;54.270;12.470;2022-10-13T00:43:04;31.43;;;13.03;;
19235;SDS011;9752;54.270;12.470;2022-10-13T00:48:14;20.27;;;11.50;;
19235;SDS011;9752;54.270;12.470;2022-10-13T00:53:20;16.63;;;10.83;;
19235;SDS011;9752;54.270;12.470;2022-10-13T00:58:24;22.27;;;11.90;;
19235;SDS011;9752;54.270;12.470;2022-10-13T01:03:30;24.00;;;12.33;;
19235;SDS011;9752;54.270;12.470;2022-10-13T01:08:33;22.03;;;12.93;;
19235;SDS011;9752;54.270;12.470;2022-10-13T01:13:36;26.50;;;13.03;;
19235;SDS011;9752;54.270;12.470;2022-10-13T01:18:43;20.00;;;12.57;;
19235;SDS011;9752;54.270;12.470;2022-10-13T01:35:09;23.20;;;10.80;;
19235;SDS011;9752;54.270;12.470;2022-10-13T01:40:17;21.10;;;10.40;;
19235;SDS011;9752;54.270;12.470;2022-10-13T01:45:28;25.80;;;10.97;;
19235;SDS011;9752;54.270;12.470;2022-10-13T01:50:36;23.50;;;11.30;;
19235;SDS011;9752;54.270;12.470;2022-10-13T01:55:47;24.30;;;11.83;;
19235;SDS011;9752;54.270;12.470;2022-10-13T02:00:55;15.07;;;10.77;;
19235;SDS011;9752;54.270;12.470;2022-10-13T02:06:08;18.00;;;10.77;;
19235;SDS011;9752;54.270;12.470;2022-10-13T02:11:18;18.23;;;10.27;;
19235;SDS011;9752;54.270;12.470;2022-10-13T02:16:23;19.60;;;10.90;;
19235;SDS011;9752;54.270;12.470;2022-10-13T02:21:25;15.30;;;10.47;;
19235;SDS011;9752;54.270;12.470;2022-10-13T02:26:28;15.17;;;9.80;;
19235;SDS011;9752;54.270;12.470;2022-10-13T02:31:37;23.30;;;9.97;;
19235;SDS011;9752;54.270;12.470;2022-10-13T02:36:39;17.13;;;9.27;;
19235;SDS011;9752;54.270;12.470;2022-10-13T02:41:41;18.93;;;9.83;;
19235;SDS011;9752;54.270;12.470;2022-10-13T02:46:44;14.77;;;8.70;;
19235;SDS011;9752;54.270;12.470;2022-10-13T02:51:45;20.47;;;9.50;;
19235;SDS011;9752;54.270;12.470;2022-10-13T02:56:47;26.43;;;10.17;;
19235;SDS011;9752;54.270;12.470;2022-10-13T03:01:50;16.73;;;8.60;;
19235;SDS011;9752;54.270;12.470;2022-10-13T03:06:52;16.50;;;8.83;;
19235;SDS011;9752;54.270;12.470;2022-10-13T03:11:53;23.73;;;8.93;;
19235;SDS011;9752;54.270;12.470;2022-10-13T03:16:56;17.47;;;8.10;;
19235;SDS011;9752;54.270;12.470;2022-10-13T03:21:58;19.60;;;8.57;;
19235;SDS011;9752;54.270;12.470;2022-10-13T03:27:00;18.03;;;8.40;;
19235;SDS011;9752;54.270;12.470;2022-10-13T03:32:03;14.50;;;7.60;;
19235;SDS011;9752;54.270;12.470;2022-10-13T03:37:05;16.03;;;8.10;;
19235;SDS011;9752;54.270;12.470;2022-10-13T03:42:12;13.37;;;8.23;;
19235;SDS011;9752;54.270;12.470;2022-10-13T03:47:15;25.03;;;8.67;;
19235;SDS011;9752;54.270;12.470;2022-10-13T03:52:17;13.93;;;8.60;;
19235;SDS011;9752;54.270;12.470;2022-10-13T03:57:19;22.30;;;8.90;;
19235;SDS011;9752;54.270;12.470;2022-10-13T04:02:22;15.30;;;7.87;;
19235;SDS011;9752;54.270;12.470;2022-10-13T04:07:25;17.07;;;8.60;;
19235;SDS011;9752;54.270;12.470;2022-10-13T04:12:27;15.20;;;9.20;;
19235;SDS011;9752;54.270;12.470;2022-10-13T04:17:30;14.97;;;8.60;;
19235;SDS011;9752;54.270;12.470;2022-10-13T04:22:31;12.87;;;8.63;;
19235;SDS011;9752;54.270;12.470;2022-10-13T04:27:33;16.23;;;8.60;;
19235;SDS011;9752;54.270;12.470;2022-10-13T04:32:38;20.30;;;9.90;;
19235;SDS011;9752;54.270;12.470;2022-10-13T04:37:41;18.57;;;10.60;;
19235;SDS011;9752;54.270;12.470;2022-10-13T04:42:43;20.50;;;9.40;;
19235;SDS011;9752;54.270;12.470;2022-10-13T04:47:46;18.30;;;9.90;;
19235;SDS011;9752;54.270;12.470;2022-10-13T04:52:49;17.03;;;9.77;;
19235;SDS011;9752;54.270;12.470;2022-10-13T04:57:51;20.77;;;9.73;;
19235;SDS011;9752;54.270;12.470;2022-10-13T05:02:54;21.03;;;10.63;;
19235;SDS011;9752;54.270;12.470;2022-10-13T05:07:55;20.07;;;10.67;;
19235;SDS011;9752;54.270;12.470;2022-10-13T05:12:57;18.87;;;10.07;;
19235;SDS011;9752;54.270;12.470;2022-10-13T05:18:00;22.10;;;11.67;;
19235;SDS011;9752;54.270;12.470;2022-10-13T05:23:02;16.80;;;9.90;;
19235;SDS011;9752;54.270;12.470;2022-10-13T05:28:04;28.53;;;12.03;;
19235;SDS011;9752;54.270;12.470;2022-10-13T05:33:08;28.03;;;10.63;;
19235;SDS011;9752;54.270;12.470;2022-10-13T05:38:10;21.07;;;10.77;;
19235;SDS011;9752;54.270;12.470;2022-10-13T05:43:11;17.40;;;10.50;;
19235;SDS011;9752;54.270;12.470;2022-10-13T05:48:14;17.33;;;10.30;;
19235;SDS011;9752;54.270;12.470;2022-10-13T05:53:16;23.30;;;11.60;;
19235;SDS011;9752;54.270;12.470;2022-10-13T05:58:18;26.33;;;11.07;;
19235;SDS011;9752;54.270;12.470;2022-10-13T06:03:21;20.20;;;11.83;;
19235;SDS011;9752;54.270;12.470;2022-10-13T06:08:23;18.93;;;12.30;;
19235;SDS011;9752;54.270;12.470;2022-10-13T06:13:25;16.40;;;10.93;;
19235;SDS011;9752;54.270;12.470;2022-10-13T06:18:28;21.93;;;12.70;;
19235;SDS011;9752;54.270;12.470;2022-10-13T06:23:30;22.37;;;12.20;;
19235;SDS011;9752;54.270;12.470;2022-10-13T06:28:32;18.30;;;11.40;;
19235;SDS011;9752;54.270;12.470;2022-10-13T06:33:35;19.70;;;13.00;;
19235;SDS011;9752;54.270;12.470;2022-10-13T06:38:37;24.03;;;13.20;;
19235;SDS011;9752;54.270;12.470;2022-10-13T06:43:38;23.93;;;12.33;;
19235;SDS011;9752;54.270;12.470;2022-10-13T06:48:44;25.40;;;12.80;;
19235;SDS011;9752;54.270;12.470;2022-10-13T06:53:48;18.83;;;12.70;;
19235;SDS011;9752;54.270;12.470;2022-10-13T06:58:55;20.83;;;11.60;;
19235;SDS011;9752;54.270;12.470;2022-10-13T07:03:58;20.93;;;11.07;;
19235;SDS011;9752;54.270;12.470;2022-10-13T07:09:01;20.27;;;11.00;;
19235;SDS011;9752;54.270;12.470;2022-10-13T07:14:03;17.70;;;11.40;;
19235;SDS011;9752;54.270;12.470;2022-10-13T07:19:06;16.80;;;11.33;;
19235;SDS011;9752;54.270;12.470;2022-10-13T07:24:10;22.37;;;10.10;;
19235;SDS011;9752;54.270;12.470;2022-10-13T07:29:12;21.53;;;12.27;;
19235;SDS011;9752;54.270;12.470;2022-10-13T07:34:15;17.87;;;11.27;;
19235;SDS011;9752;54.270;12.470;2022-10-13T07:39:17;18.37;;;10.80;;
19235;SDS011;9752;54.270;12.470;2022-10-13T07:44:19;15.60;;;10.43;;
19235;SDS011;9752;54.270;12.470;2022-10-13T07:49:22;17.93;;;10.53;;
19235;SDS011;9752;54.270;12.470;2022-10-13T07:54:23;15.10;;;11.00;;
19235;SDS011;9752;54.270;12.470;2022-10-13T07:59:25;22.23;;;11.17;;
19235;SDS011;9752;54.270;12.470;2022-10-13T08:04:29;16.70;;;10.90;;
19235;SDS011;9752;54.270;12.470;2022-10-13T08:09:31;18.03;;;10.50;;
19235;SDS011;9752;54.270;12.470;2022-10-13T08:14:33;18.90;;;11.17;;
19235;SDS011;9752;54.270;12.470;2022-10-13T08:19:36;15.17;;;12.10;;
19235;SDS011;9752;54.270;12.470;2022-10-13T08:24:38;15.40;;;9.33;;
19235;SDS011;9752;54.270;12.470;2022-10-13T08:29:39;18.97;;;9.80;;
19235;SDS011;9752;54.270;12.470;2022-10-13T08:34:43;15.00;;;9.93;;
19235;SDS011;9752;54.270;12.470;2022-10-13T08:39:45;20.10;;;11.80;;
19235;SDS011;9752;54.270;12.470;2022-10-13T08:44:47;15.47;;;10.27;;
19235;SDS011;9752;54.270;12.470;2022-10-13T08:49:53;17.70;;;10.57;;
19235;SDS011;9752;54.270;12.470;2022-10-13T08:54:56;16.10;;;10.07;;
19235;SDS011;9752;54.270;12.470;2022-10-13T08:59:58;21.43;;;11.03;;
19235;SDS011;9752;54.270;12.470;2022-10-13T09:05:01;15.67;;;10.77;;
19235;SDS011;9752;54.270;12.470;2022-10-13T09:10:06;15.60;;;11.00;;
19235;SDS011;9752;54.270;12.470;2022-10-13T09:15:10;18.63;;;10.60;;
19235;SDS011;9752;54.270;12.470;2022-10-13T09:20:17;16.13;;;11.20;;
19235;SDS011;9752;54.270;12.470;2022-10-13T09:25:21;19.87;;;11.17;;
19235;SDS011;9752;54.270;12.470;2022-10-13T09:30:24;21.87;;;11.63;;
19235;SDS011;9752;54.270;12.470;2022-10-13T09:35:33;13.17;;;10.50;;
19235;SDS011;9752;54.270;12.470;2022-10-13T09:40:35;15.03;;;12.57;;
19235;SDS011;9752;54.270;12.470;2022-10-13T09:45:40;14.30;;;11.40;;
19235;SDS011;9752;54.270;12.470;2022-10-13T09:50:47;18.10;;;13.23;;
19235;SDS011;9752;54.270;12.470;2022-10-13T09:55:54;18.17;;;12.43;;
19235;SDS011;9752;54.270;12.470;2022-10-13T10:01:09;21.43;;;12.53;;
19235;SDS011;9752;54.270;12.470;2022-10-13T10:06:21;17.63;;;13.87;;
19235;SDS011;9752;54.270;12.470;2022-10-13T10:11:25;19.60;;;14.17;;
19235;SDS011;9752;54.270;12.470;2022-10-13T10:16:29;18.87;;;13.13;;
19235;SDS011;9752;54.270;12.470;2022-10-13T10:21:39;18.47;;;13.63;;
19235;SDS011;9752;54.270;12.470;2022-10-13T10:26:48;20.80;;;14.20;;
19235;SDS011;9752;54.270;12.470;2022-10-13T10:32:03;22.43;;;14.77;;
19235;SDS011;9752;54.270;12.470;2022-10-13T10:37:17;23.40;;;14.83;;
19235;SDS011;9752;54.270;12.470;2022-10-13T10:48:11;28.27;;;15.07;;
19235;SDS011;9752;54.270;12.470;2022-10-13T10:53:21;20.33;;;14.90;;
19235;SDS011;9752;54.270;12.470;2022-10-13T10:58:36;25.93;;;15.20;;
19235;SDS011;9752;54.270;12.470;2022-10-13T11:03:49;17.73;;;14.63;;
19235;SDS011;9752;54.270;12.470;2022-10-13T11:08:58;17.60;;;14.50;;
19235;SDS011;9752;54.270;12.470;2022-10-13T11:14:01;16.87;;;13.47;;
19235;SDS011;9752;54.270;12.470;2022-10-13T11:19:28;18.17;;;13.07;;
19235;SDS011;9752;54.270;12.470;2022-10-13T11:24:45;14.00;;;11.60;;
19235;SDS011;9752;54.270;12.470;2022-10-13T11:30:00;20.83;;;12.50;;
19235;SDS011;9752;54.270;12.470;2022-10-13T11:35:13;14.97;;;13.23;;
19235;SDS011;9752;54.270;12.470;2022-10-13T11:40:23;17.63;;;12.73;;
19235;SDS011;9752;54.270;12.470;2022-10-13T11:45:44;19.30;;;14.70;;
19235;SDS011;9752;54.270;12.470;2022-10-13T11:50:57;24.80;;;16.60;;
19235;SDS011;9752;54.270;12.470;2022-10-13T11:56:18;21.87;;;17.00;;
19235;SDS011;9752;54.270;12.470;2022-10-13T12:01:21;21.50;;;15.87;;
19235;SDS011;9752;54.270;12.470;2022-10-13T12:06:24;20.97;;;16.10;;
19235;SDS011;9752;54.270;12.470;2022-10-13T12:11:35;20.43;;;14.47;;
19235;SDS011;9752;54.270;12.470;2022-10-13T12:16:37;21.80;;;14.60;;
19235;SDS011;9752;54.270;12.470;2022-10-13T12:21:53;18.57;;;13.73;;
19235;SDS011;9752;54.270;12.470;2022-10-13T12:26:58;19.17;;;14.57;;
19235;SDS011;9752;54.270;12.470;2022-10-13T12:32:16;18.30;;;13.67;;
19235;SDS011;9752;54.270;12.470;2022-10-13T12:37:25;22.57;;;15.37;;
19235;SDS011;9752;54.270;12.470;2022-10-13T12:42:31;23.67;;;14.47;;
19235;SDS011;9752;54.270;12.470;2022-10-13T12:47:35;22.20;;;14.30;;
19235;SDS011;9752;54.270;12.470;2022-10-13T12:52:39;21.60;;;16.10;;
19235;SDS011;9752;54.270;12.470;2022-10-13T12:57:43;17.70;;;12.93;;
19235;SDS011;9752;54.270;12.470;2022-10-13T13:02:46;15.60;;;13.87;;
19235;SDS011;9752;54.270;12.470;2022-10-13T13:07:51;16.50;;;13.63;;
19235;SDS011;9752;54.270;12.470;2022-10-13T13:12:54;18.53;;;13.70;;
19235;SDS011;9752;54.270;12.470;2022-10-13T13:18:05;16.90;;;13.70;;
19235;SDS011;9752;54.270;12.470;2022-10-13T13:23:34;18.83;;;12.27;;
19235;SDS011;9752;54.270;12.470;2022-10-13T13:28:38;18.10;;;12.57;;
19235;SDS011;9752;54.270;12.470;2022-10-13T13:33:44;21.93;;;12.63;;
19235;SDS011;9752;54.270;12.470;2022-10-13T13:38:46;15.87;;;12.60;;
19235;SDS011;9752;54.270;12.470;2022-10-13T13:43:49;18.30;;;13.03;;
19235;SDS011;9752;54.270;12.470;2022-10-13T13:48:51;18.57;;;12.33;;
19235;SDS011;9752;54.270;12.470;2022-10-13T13:53:52;15.90;;;11.90;;
19235;SDS011;9752;54.270;12.470;2022-10-13T13:58:55;15.20;;;12.60;;
19235;SDS011;9752;54.270;12.470;2022-10-13T14:03:57;18.67;;;12.33;;
19235;SDS011;9752;54.270;12.470;2022-10-13T14:08:59;21.67;;;12.97;;
19235;SDS011;9752;54.270;12.470;2022-10-13T14:14:03;16.27;;;12.90;;
19235;SDS011;9752;54.270;12.470;2022-10-13T14:19:05;16.87;;;11.73;;
19235;SDS011;9752;54.270;12.470;2022-10-13T14:24:06;14.50;;;11.17;;
19235;SDS011;9752;54.270;12.470;2022-10-13T14:29:11;18.00;;;11.93;;
19235;SDS011;9752;54.270;12.470;2022-10-13T14:34:13;14.27;;;11.37;;
19235;SDS011;9752;54.270;12.470;2022-10-13T14:39:15;18.40;;;12.20;;
19235;SDS011;9752;54.270;12.470;2022-10-13T14:44:18;17.63;;;11.87;;
19235;SDS011;9752;54.270;12.470;2022-10-13T14:49:20;22.93;;;13.50;;
19235;SDS011;9752;54.270;12.470;2022-10-13T14:54:24;17.83;;;12.27;;
19235;SDS011;9752;54.270;12.470;2022-10-13T14:59:27;17.37;;;12.53;;
19235;SDS011;9752;54.270;12.470;2022-10-13T15:04:29;19.20;;;13.00;;
19235;SDS011;9752;54.270;12.470;2022-10-13T15:09:31;24.30;;;13.03;;
19235;SDS011;9752;54.270;12.470;2022-10-13T15:14:34;19.97;;;13.93;;
19235;SDS011;9752;54.270;12.470;2022-10-13T15:19:37;13.13;;;11.73;;
19235;SDS011;9752;54.270;12.470;2022-10-13T15:24:39;24.23;;;12.50;;
19235;SDS011;9752;54.270;12.470;2022-10-13T15:29:42;14.80;;;11.33;;
19235;SDS011;9752;54.270;12.470;2022-10-13T15:34:44;17.07;;;11.97;;
19235;SDS011;9752;54.270;12.470;2022-10-13T15:39:46;19.13;;;12.40;;
19235;SDS011;9752;54.270;12.470;2022-10-13T15:44:49;15.33;;;11.93;;
19235;SDS011;9752;54.270;12.470;2022-10-13T15:49:51;26.20;;;17.27;;
19235;SDS011;9752;54.270;12.470;2022-10-13T15:54:53;22.70;;;14.33;;
19235;SDS011;9752;54.270;12.470;2022-10-13T15:59:57;16.03;;;12.53;;
19235;SDS011;9752;54.270;12.470;2022-10-13T16:04:58;20.57;;;14.73;;
19235;SDS011;9752;54.270;12.470;2022-10-13T16:10:04;24.50;;;15.10;;
19235;SDS011;9752;54.270;12.470;2022-10-13T16:15:08;28.20;;;14.67;;
19235;SDS011;9752;54.270;12.470;2022-10-13T16:20:10;24.53;;;13.53;;
19235;SDS011;9752;54.270;12.470;2022-10-13T16:25:12;19.40;;;12.80;;
19235;SDS011;9752;54.270;12.470;2022-10-13T16:30:16;27.63;;;13.03;;
19235;SDS011;9752;54.270;12.470;2022-10-13T16:35:17;27.20;;;15.30;;
19235;SDS011;9752;54.270;12.470;2022-10-13T16:40:19;31.90;;;19.47;;
19235;SDS011;9752;54.270;12.470;2022-10-13T16:45:22;35.07;;;23.63;;
19235;SDS011;9752;54.270;12.470;2022-10-13T16:50:24;26.87;;;18.20;;
19235;SDS011;9752;54.270;12.470;2022-10-13T16:55:26;29.33;;;16.20;;
19235;SDS011;9752;54.270;12.470;2022-10-13T17:00:29;28.00;;;17.63;;
19235;SDS011;9752;54.270;12.470;2022-10-13T17:05:31;24.40;;;17.13;;
19235;SDS011;9752;54.270;12.470;2022-10-13T17:10:32;29.30;;;18.93;;
19235;SDS011;9752;54.270;12.470;2022-10-13T17:15:35;30.70;;;21.77;;
19235;SDS011;9752;54.270;12.470;2022-10-13T17:20:37;37.47;;;23.30;;
19235;SDS011;9752;54.270;12.470;2022-10-13T17:25:40;37.63;;;21.60;;
19235;SDS011;9752;54.270;12.470;2022-10-13T17:30:43;30.87;;;21.57;;
19235;SDS011;9752;54.270;12.470;2022-10-13T17:35:46;25.43;;;16.67;;
19235;SDS011;9752;54.270;12.470;2022-10-13T17:40:47;25.93;;;15.43;;
19235;SDS011;9752;54.270;12.470;2022-10-13T17:45:50;23.90;;;15.70;;
19235;SDS011;9752;54.270;12.470;2022-10-13T17:50:52;32.63;;;18.37;;
19235;SDS011;9752;54.270;12.470;2022-10-13T17:55:57;27.77;;;17.67;;
19235;SDS011;9752;54.270;12.470;2022-10-13T18:01:02;27.20;;;17.27;;
19235;SDS011;9752;54.270;12.470;2022-10-13T18:06:06;30.60;;;18.17;;
19235;SDS011;9752;54.270;12.470;2022-10-13T18:11:09;33.63;;;18.80;;
19235;SDS011;9752;54.270;12.470;2022-10-13T18:16:14;25.53;;;18.43;;
19235;SDS011;9752;54.270;12.470;2022-10-13T18:21:18;28.93;;;19.17;;
19235;SDS011;9752;54.270;12.470;2022-10-13T18:26:25;28.73;;;17.17;;
19235;SDS011;9752;54.270;12.470;2022-10-13T18:31:32;23.73;;;18.37;;
19235;SDS011;9752;54.270;12.470;2022-10-13T18:36:36;30.00;;;19.43;;
19235;SDS011;9752;54.270;12.470;2022-10-13T18:41:44;31.43;;;19.40;;
19235;SDS011;9752;54.270;12.470;2022-10-13T18:46:49;27.53;;;19.23;;
19235;SDS011;9752;54.270;12.470;2022-10-13T18:51:51;30.87;;;21.23;;
19235;SDS011;9752;54.270;12.470;2022-10-13T18:56:53;35.67;;;21.70;;
19235;SDS011;9752;54.270;12.470;2022-10-13T19:01:56;28.57;;;19.73;;
19235;SDS011;9752;54.270;12.470;2022-10-13T19:06:58;32.93;;;21.07;;
19235;SDS011;9752;54.270;12.470;2022-10-13T19:12:00;28.50;;;19.67;;
19235;SDS011;9752;54.270;12.470;2022-10-13T19:17:03;27.23;;;18.77;;
19235;SDS011;9752;54.270;12.470;2022-10-13T19:22:07;27.93;;;18.97;;
19235;SDS011;9752;54.270;12.470;2022-10-13T19:27:09;30.20;;;20.27;;
19235;SDS011;9752;54.270;12.470;2022-10-13T19:32:12;33.17;;;18.83;;
19235;SDS011;9752;54.270;12.470;2022-10-13T19:37:13;27.53;;;18.67;;
19235;SDS011;9752;54.270;12.470;2022-10-13T19:42:16;25.87;;;17.23;;
19235;SDS011;9752;54.270;12.470;2022-10-13T19:47:19;24.07;;;18.00;;
19235;SDS011;9752;54.270;12.470;2022-10-13T19:52:21;30.27;;;17.57;;
19235;SDS011;9752;54.270;12.470;2022-10-13T19:57:23;28.20;;;17.60;;
19235;SDS011;9752;54.270;12.470;2022-10-13T20:02:27;26.27;;;16.93;;
19235;SDS011;9752;54.270;12.470;2022-10-13T20:07:28;29.90;;;19.33;;
19235;SDS011;9752;54.270;12.470;2022-10-13T20:12:30;24.77;;;16.57;;
19235;SDS011;9752;54.270;12.470;2022-10-13T20:17:33;23.00;;;16.97;;
19235;SDS011;9752;54.270;12.470;2022-10-13T20:22:35;33.80;;;18.90;;
19235;SDS011;9752;54.270;12.470;2022-10-13T20:27:38;38.83;;;20.30;;
19235;SDS011;9752;54.270;12.470;2022-10-13T20:32:43;35.40;;;20.13;;
19235;SDS011;9752;54.270;12.470;2022-10-13T20:37:46;23.63;;;18.97;;
19235;SDS011;9752;54.270;12.470;2022-10-13T20:42:48;28.40;;;20.37;;
19235;SDS011;9752;54.270;12.470;2022-10-13T20:47:52;25.53;;;20.20;;
19235;SDS011;9752;54.270;12.470;2022-10-13T20:52:54;27.23;;;19.37;;
19235;SDS011;9752;54.270;12.470;2022-10-13T20:57:56;31.17;;;20.53;;
19235;SDS011;9752;54.270;12.470;2022-10-13T21:02:59;25.63;;;19.30;;
19235;SDS011;9752;54.270;12.470;2022-10-13T21:08:00;30.13;;;20.53;;
19235;SDS011;9752;54.270;12.470;2022-10-13T21:13:03;32.57;;;19.57;;
19235;SDS011;9752;54.270;12.470;2022-10-13T21:18:07;26.40;;;19.00;;
19235;SDS011;9752;54.270;12.470;2022-10-13T21:23:11;28.27;;;19.47;;
19235;SDS011;9752;54.270;12.470;2022-10-13T21:28:13;30.97;;;19.87;;
19235;SDS011;9752;54.270;12.470;2022-10-13T21:33:16;25.23;;;16.90;;
19235;SDS011;9752;54.270;12.470;2022-10-13T21:38:18;34.10;;;18.90;;
19235;SDS011;9752;54.270;12.470;2022-10-13T21:43:20;28.50;;;18.33;;
19235;SDS011;9752;54.270;12.470;2022-10-13T21:48:23;32.43;;;19.50;;
19235;SDS011;9752;54.270;12.470;2022-10-13T21:53:25;29.30;;;18.17;;
19235;SDS011;9752;54.270;12.470;2022-10-13T21:58:27;31.57;;;20.17;;
19235;SDS011;9752;54.270;12.470;2022-10-13T22:03:30;26.67;;;18.40;;
19235;SDS011;9752;54.270;12.470;2022-10-13T22:08:34;25.37;;;16.27;;
19235;SDS011;9752;54.270;12.470;2022-10-13T22:13:39;25.73;;;18.00;;
19235;SDS011;9752;54.270;12.470;2022-10-13T22:18:42;28.10;;;17.73;;
19235;SDS011;9752;54.270;12.470;2022-10-13T22:23:44;28.67;;;18.87;;
19235;SDS011;9752;54.270;12.470;2022-10-13T22:28:46;27.50;;;18.73;;
19235;SDS011;9752;54.270;12.470;2022-10-13T22:33:52;28.37;;;16.83;;
19235;SDS011;9752;54.270;12.470;2022-10-13T22:38:56;25.87;;;17.83;;
19235;SDS011;9752;54.270;12.470;2022-10-13T22:43:59;21.93;;;17.43;;
19235;SDS011;9752;54.270;12.470;2022-10-13T22:49:03;30.47;;;18.90;;
19235;SDS011;9752;54.270;12.470;2022-10-13T22:54:05;27.13;;;17.67;;
19235;SDS011;9752;54.270;12.470;2022-10-13T22:59:07;25.00;;;19.53;;
19235;SDS011;9752;54.270;12.470;2022-10-13T23:04:10;27.03;;;17.97;;
19235;SDS011;9752;54.270;12.470;2022-10-13T23:09:12;29.13;;;18.67;;
19235;SDS011;9752;54.270;12.470;2022-10-13T23:14:14;25.40;;;17.33;;
19235;SDS011;9752;54.270;12.470;2022-10-13T23:19:17;24.37;;;17.40;;
19235;SDS011;9752;54.270;12.470;2022-10-13T23:24:19;26.90;;;17.43;;
19235;SDS011;9752;54.270;12.470;2022-10-13T23:29:21;24.27;;;17.40;;
19235;SDS011;9752;54.270;12.470;2022-10-13T23:34:24;22.87;;;17.73;;
19235;SDS011;9752;54.270;12.470;2022-10-13T23:39:28;20.23;;;16.90;;
19235;SDS011;9752;54.270;12.470;2022-10-13T23:44:30;30.70;;;18.53;;
19235;SDS011;9752;54.270;12.470;2022-10-13T23:49:33;27.23;;;18.40;;
19235;SDS011;9752;54.270;12.470;2022-10-13T23:54:35;24.77;;;16.90;;
19235;SDS011;9752;54.270;12.470;2022-10-13T23:59:36;25.10;;;18.07;;
